Time;durP1;ratioP1;P1;durP2;ratioP2;P2;SDS_P1;SDS_P2;PMS_P1;PMS_P2;Temp;Humidity;BMP_temperature;BMP_pressure;BME280_temperature;BME280_humidity;BME280_pressure;Samples;Min_cycle;Max_cycle;Signal;HPM_P1;HPM_P2
2022/11/25 00:00:52;;;;;;;;;;;;;;;-144.99;100.00;52603.00;5062928;28;19943;-78
2022/11/25 00:03:19;;;;;;;;;;;;;;;-144.99;100.00;52619.31;5049271;28;19925;-75
2022/11/25 00:05:45;;;;;;;;;;;;;;;-144.99;100.00;52607.09;5030648;28;19943;-76
2022/11/25 00:08:12;;;;;;;;;;;;;;;-144.99;100.00;52609.13;5036228;28;20009;-75
2022/11/25 00:10:38;;;;;;;;;;;;;;;-144.99;100.00;52578.53;5057206;28;19937;-76
2022/11/25 00:13:06;;;;;;;;;;;;;;;-144.99;100.00;52619.31;5039028;28;19946;-77
2022/11/25 00:15:33;;;;;;;;;;;;;;;-144.99;100.00;52635.63;5052489;28;20367;-76
2022/11/25 00:18:00;;;;;;;;;;;;;;;-144.99;100.00;52631.53;5029581;28;19962;-74
2022/11/25 00:20:26;;;;;;;;;;;;;;;-144.99;100.00;52562.25;5055516;28;19960;-77
2022/11/25 00:22:53;;;;;;;;;;;;;;;-144.99;100.00;52627.47;5029983;28;19954;-77
2022/11/25 00:25:19;;;;;;;;;;;;;;;-144.99;100.00;52598.94;5039010;28;20008;-74
2022/11/25 00:27:46;;;;;;;;;;;;;;;-144.99;100.00;52566.31;5053184;28;19953;-77
2022/11/25 00:30:14;;;;;;;;;;;;;;;-144.99;100.00;52554.09;5034087;28;19970;-79
2022/11/25 00:32:41;;;;;;;;;;;;;;;-144.99;100.00;52623.38;5030159;28;20067;-75
2022/11/25 00:35:07;;;;;;;;;;;;;;;-144.99;100.00;52570.38;5057307;28;19948;-78
2022/11/25 00:37:34;;;;;;;;;;;;;;;-144.99;100.00;52590.78;5057428;28;19951;-76
2022/11/25 00:40:00;;;;;;;;;;;;;;;-144.99;100.00;52629.50;5045702;28;20089;-76
2022/11/25 00:45:10;;;;;;;;;;;;;;;-144.99;100.00;52600.97;5030523;28;20039;-76
2022/11/25 00:47:38;;;;;;;;;;;;;;;-144.99;100.00;52627.47;5054751;28;19955;-76
2022/11/25 00:50:05;;;;;;;;;;;;;;;-144.99;100.00;52592.81;5031129;28;20351;-76
2022/11/25 00:52:35;;;;;;;;;;;;;;;-144.99;100.00;52615.25;5045855;28;19939;-76
2022/11/25 00:55:02;;;;;;;;;;;;;;;-144.99;100.00;52598.94;5033651;28;19925;-77
2022/11/25 00:57:29;;;;;;;;;;;;;;;-144.99;100.00;52582.63;5055870;28;20058;-75
2022/11/25 00:59:55;;;;;;;;;;;;;;;-144.99;100.00;52574.47;5045649;28;20060;-75
2022/11/25 01:02:22;;;;;;;;;;;;;;;-144.99;100.00;52615.25;5029652;28;20015;-76
2022/11/25 01:04:50;;;;;;;;;;;;;;;-144.99;100.00;52605.03;5030026;28;19925;-75
2022/11/25 01:07:17;;;;;;;;;;;;;;;-144.99;100.00;52627.47;5051044;28;20045;-76
2022/11/25 01:09:43;;;;;;;;;;;;;;;-144.99;100.00;52605.03;5047871;28;19940;-75
2022/11/25 01:12:09;;;;;;;;;;;;;;;-144.99;100.00;52570.38;5029773;28;20033;-76
2022/11/25 01:14:36;;;;;;;;;;;;;;;-144.99;100.00;52598.94;5029134;28;20088;-76
2022/11/25 01:17:03;;;;;;;;;;;;;;;-144.99;100.00;52615.25;5028754;28;19994;-76
2022/11/25 01:19:29;;;;;;;;;;;;;;;-144.99;100.00;52562.25;5043801;28;19954;-76
2022/11/25 01:21:57;;;;;;;;;;;;;;;-144.99;100.00;52570.38;5037742;28;19943;-74
2022/11/25 01:24:25;;;;;;;;;;;;;;;-144.99;100.00;52627.47;5049353;28;19941;-75
2022/11/25 01:26:51;;;;;;;;;;;;;;;-144.99;100.00;52607.09;5032478;28;20411;-75
2022/11/25 01:29:18;;;;;;;;;;;;;;;-144.99;100.00;52621.34;5039937;28;19976;-75
2022/11/25 01:31:45;;;;;;;;;;;;;;;-144.99;100.00;52603.00;5049777;28;20355;-76
2022/11/25 01:34:12;;;;;;;;;;;;;;;-144.99;100.00;52647.84;5034922;28;20438;-76
2022/11/25 01:36:39;;;;;;;;;;;;;;;-144.99;100.00;52603.00;5029584;28;19948;-74
2022/11/25 01:39:07;;;;;;;;;;;;;;;-144.99;100.00;52615.25;5038896;28;20073;-73
2022/11/25 01:41:34;;;;;;;;;;;;;;;-144.99;100.00;52578.53;5048418;28;19997;-74
2022/11/25 01:44:08;;;;;;;;;;;;;;;-144.99;100.00;52625.44;5028464;28;19974;-72
2022/11/25 01:46:44;;;;;;;;;;;;;;;-144.99;100.00;52584.66;5042362;28;20002;-76
2022/11/25 01:49:14;;;;;;;;;;;;;;;-144.99;100.00;52603.00;5052826;28;19960;-74
2022/11/25 01:51:43;;;;;;;;;;;;;;;-144.99;100.00;52633.59;5053028;28;19944;-73
2022/11/25 01:54:12;;;;;;;;;;;;;;;-144.99;100.00;52623.38;5053016;28;20270;-73
2022/11/25 01:56:40;;;;;;;;;;;;;;;-144.99;100.00;52594.84;5046689;28;19991;-73
2022/11/25 01:59:07;;;;;;;;;;;;;;;-144.99;100.00;52607.09;5052128;28;19998;-73
2022/11/25 02:01:33;;;;;;;;;;;;;;;-144.99;100.00;52619.31;5047974;28;19994;-73
2022/11/25 02:04:00;;;;;;;;;;;;;;;-144.99;100.00;52603.00;5035134;28;20172;-73
2022/11/25 02:06:27;;;;;;;;;;;;;;;-144.99;100.00;52598.94;5034947;28;19939;-73
2022/11/25 02:08:55;;;;;;;;;;;;;;;-144.99;100.00;52586.69;5053211;28;20361;-73
2022/11/25 02:11:25;;;;;;;;;;;;;;;-144.99;100.00;52598.94;5035576;28;19999;-71
2022/11/25 02:13:52;;;;;;;;;;;;;;;-144.99;100.00;52596.88;5048045;28;20087;-73
2022/11/25 02:16:18;;;;;;;;;;;;;;;-144.99;100.00;52603.00;5039715;28;20001;-72
2022/11/25 02:18:45;;;;;;;;;;;;;;;-144.99;100.00;52578.53;5052197;28;20046;-73
2022/11/25 02:21:13;;;;;;;;;;;;;;;-144.99;100.00;52570.38;5034063;28;20025;-72
2022/11/25 02:23:50;;;;;;;;;;;;;;;-144.99;100.00;52623.38;5048186;28;19956;-72
2022/11/25 02:26:18;;;;;;;;;;;;;;;-144.99;100.00;52623.38;5041374;28;19985;-73
2022/11/25 02:28:44;;;;;;;;;;;;;;;-144.99;100.00;52625.44;5044853;28;19954;-75
2022/11/25 02:31:11;;;;;;;;;;;;;;;-144.99;100.00;52594.84;5050428;28;19971;-76
2022/11/25 02:33:37;;;;;;;;;;;;;;;-144.99;100.00;52623.38;5027890;28;20474;-75
2022/11/25 02:36:05;;;;;;;;;;;;;;;-144.99;100.00;52582.63;5028353;28;20062;-76
2022/11/25 02:38:36;;;;;;;;;;;;;;;-144.99;100.00;52603.00;5031824;28;20009;-77
2022/11/25 02:41:07;;;;;;;;;;;;;;;-144.99;100.00;52603.00;5042463;28;20008;-76
2022/11/25 02:43:35;;;;;;;;;;;;;;;-144.99;100.00;52603.00;5027781;28;20016;-76
2022/11/25 02:46:04;;;;;;;;;;;;;;;-144.99;100.00;52603.00;5031530;28;20431;-76
2022/11/25 02:48:31;;;;;;;;;;;;;;;-144.99;100.00;52615.25;5041184;28;19987;-75
2022/11/25 02:50:58;;;;;;;;;;;;;;;-144.99;100.00;52629.50;5057826;28;19939;-76
2022/11/25 02:53:25;;;;;;;;;;;;;;;-144.99;100.00;52594.84;5061838;28;20402;-76
2022/11/25 02:55:52;;;;;;;;;;;;;;;-144.99;100.00;52619.31;5035074;28;20086;-75
2022/11/25 02:58:18;;;;;;;;;;;;;;;-144.99;100.00;52615.25;5056613;28;19970;-76
2022/11/25 03:00:47;;;;;;;;;;;;;;;-144.99;100.00;52598.94;5064166;28;19952;-77
2022/11/25 03:03:13;;;;;;;;;;;;;;;-144.99;100.00;52590.78;5032786;28;19949;-75
2022/11/25 03:05:40;;;;;;;;;;;;;;;-144.99;100.00;52619.31;5042429;28;20055;-74
2022/11/25 03:08:07;;;;;;;;;;;;;;;-144.99;100.00;52623.38;5053047;28;19978;-75
2022/11/25 03:10:34;;;;;;;;;;;;;;;-144.99;100.00;52588.75;5036884;28;19965;-75
2022/11/25 03:13:01;;;;;;;;;;;;;;;-144.99;100.00;52627.47;5029835;28;19947;-76
2022/11/25 03:15:27;;;;;;;;;;;;;;;-144.99;100.00;52570.38;5028778;28;20504;-76
2022/11/25 03:17:55;;;;;;;;;;;;;;;-144.99;100.00;52594.84;5029800;28;20009;-76
2022/11/25 03:20:22;;;;;;;;;;;;;;;-144.99;100.00;52621.34;5031701;28;19967;-75
2022/11/25 03:22:48;;;;;;;;;;;;;;;-144.99;100.00;52615.25;5039337;28;19951;-75
2022/11/25 03:25:15;;;;;;;;;;;;;;;-144.99;100.00;52578.53;5051567;28;20306;-75
2022/11/25 03:27:42;;;;;;;;;;;;;;;-144.99;100.00;52611.16;5043692;28;19959;-76
2022/11/25 03:30:09;;;;;;;;;;;;;;;-144.99;100.00;52619.31;5037838;28;20001;-76
2022/11/25 03:32:36;;;;;;;;;;;;;;;-144.99;100.00;52574.47;5037995;28;19943;-77
2022/11/25 03:35:04;;;;;;;;;;;;;;;-144.99;100.00;52617.28;5040072;28;19956;-77
2022/11/25 03:37:30;;;;;;;;;;;;;;;-144.99;100.00;52590.78;5053339;28;19959;-77
2022/11/25 03:39:57;;;;;;;;;;;;;;;-144.99;100.00;52635.63;5039213;28;20007;-77
2022/11/25 03:42:23;;;;;;;;;;;;;;;-144.99;100.00;52570.38;5051583;28;19977;-76
2022/11/25 03:44:50;;;;;;;;;;;;;;;-144.99;100.00;52629.50;5039507;28;19963;-75
2022/11/25 03:47:16;;;;;;;;;;;;;;;-144.99;100.00;52562.25;5050189;28;20442;-77
2022/11/25 03:49:43;;;;;;;;;;;;;;;-144.99;100.00;52594.84;5038942;28;19947;-75
2022/11/25 03:52:11;;;;;;;;;;;;;;;-144.99;100.00;52619.31;5042206;28;19984;-75
2022/11/25 03:54:37;;;;;;;;;;;;;;;-144.99;100.00;52590.78;5052502;28;19967;-75
2022/11/25 03:57:04;;;;;;;;;;;;;;;-144.99;100.00;52590.78;5044409;28;19987;-75
2022/11/25 03:59:30;;;;;;;;;;;;;;;-144.99;100.00;52617.28;5055728;28;19944;-75
2022/11/25 04:01:57;;;;;;;;;;;;;;;-144.99;100.00;52598.94;5030502;28;20042;-75
2022/11/25 04:04:23;;;;;;;;;;;;;;;-144.99;100.00;52598.94;5031179;28;19994;-75
2022/11/25 04:06:50;;;;;;;;;;;;;;;-144.99;100.00;52627.47;5058557;28;19939;-75
2022/11/25 04:09:19;;;;;;;;;;;;;;;-144.99;100.00;52600.97;5057980;28;19987;-75
2022/11/25 04:14:29;;;;;;;;;;;;;;;-144.99;100.00;52578.53;5046691;28;20464;-74
2022/11/25 04:16:56;;;;;;;;;;;;;;;-144.99;100.00;52605.03;5041905;28;19991;-75
2022/11/25 04:19:22;;;;;;;;;;;;;;;-144.99;100.00;52580.59;5045811;28;20391;-75
2022/11/25 04:21:49;;;;;;;;;;;;;;;-144.99;100.00;52627.47;5043608;28;19939;-76
2022/11/25 04:24:15;;;;;;;;;;;;;;;-144.99;100.00;52594.84;5039417;28;19997;-75
2022/11/25 04:26:43;;;;;;;;;;;;;;;-144.99;100.00;52582.63;5034706;28;19986;-76
2022/11/25 04:29:10;;;;;;;;;;;;;;;-144.99;100.00;52594.84;5037166;28;19929;-76
2022/11/25 04:31:37;;;;;;;;;;;;;;;-144.99;100.00;52590.78;5047005;28;19959;-76
2022/11/25 04:34:04;;;;;;;;;;;;;;;-144.99;100.00;52570.38;5042198;28;19936;-75
2022/11/25 04:36:30;;;;;;;;;;;;;;;-144.99;100.00;52582.63;5046432;28;19939;-76
2022/11/25 04:38:57;;;;;;;;;;;;;;;-144.99;100.00;52525.56;5045207;28;19972;-76
2022/11/25 04:41:23;;;;;;;;;;;;;;;-144.99;100.00;52574.47;5043887;28;19956;-75
2022/11/25 04:43:51;;;;;;;;;;;;;;;-144.99;100.00;52598.94;5073055;28;19961;-75
2022/11/25 04:46:19;;;;;;;;;;;;;;;-144.99;100.00;52584.66;5049005;28;19978;-74
2022/11/25 04:48:46;;;;;;;;;;;;;;;-144.99;100.00;52625.44;5038387;28;19961;-76
2022/11/25 04:51:12;;;;;;;;;;;;;;;-144.99;100.00;52651.94;5032396;28;20050;-75
2022/11/25 04:53:39;;;;;;;;;;;;;;;-144.99;100.00;52594.84;5073948;23;20062;-73
2022/11/25 04:56:06;;;;;;;;;;;;;;;-144.99;100.00;52594.84;5044577;28;19994;-72
2022/11/25 05:01:17;;;;;;;;;;;;;;;-144.99;100.00;52619.31;5051013;28;20410;-73
2022/11/25 05:03:44;;;;;;;;;;;;;;;-144.99;100.00;52582.63;5049118;28;19955;-73
2022/11/25 05:06:10;;;;;;;;;;;;;;;-144.99;100.00;52617.28;5051455;28;19946;-73
2022/11/25 05:08:38;;;;;;;;;;;;;;;-144.99;100.00;52576.50;5041256;28;19941;-78
2022/11/25 05:11:05;;;;;;;;;;;;;;;-144.99;100.00;52582.63;5034472;28;19973;-74
2022/11/25 05:13:31;;;;;;;;;;;;;;;-144.99;100.00;52586.69;5050619;28;19985;-75
2022/11/25 05:15:58;;;;;;;;;;;;;;;-144.99;100.00;52590.78;5047658;28;19955;-74
2022/11/25 05:18:26;;;;;;;;;;;;;;;-144.99;100.00;52603.00;5048734;28;19936;-72
2022/11/25 05:20:52;;;;;;;;;;;;;;;-144.99;100.00;52631.53;5046221;28;20509;-72
2022/11/25 05:23:21;;;;;;;;;;;;;;;-144.99;100.00;52582.63;5048389;28;20454;-73
2022/11/25 05:25:47;;;;;;;;;;;;;;;-144.99;100.00;52611.16;5041979;28;19989;-73
2022/11/25 05:28:14;;;;;;;;;;;;;;;-144.99;100.00;52598.94;5048484;28;20245;-73
2022/11/25 05:30:41;;;;;;;;;;;;;;;-144.99;100.00;52586.69;5043510;28;20000;-72
2022/11/25 05:33:10;;;;;;;;;;;;;;;-144.99;100.00;52570.38;5039713;28;19955;-74
2022/11/25 05:35:38;;;;;;;;;;;;;;;-144.99;100.00;52651.94;5049261;28;19936;-73
2022/11/25 05:38:04;;;;;;;;;;;;;;;-144.99;100.00;52582.63;5049126;28;19943;-74
2022/11/25 05:40:31;;;;;;;;;;;;;;;-144.99;100.00;52607.09;5048855;28;19951;-73
2022/11/25 05:42:59;;;;;;;;;;;;;;;-144.99;100.00;52562.25;5044960;28;19957;-73
2022/11/25 05:45:26;;;;;;;;;;;;;;;-144.99;100.00;52598.94;5044875;28;19963;-75
2022/11/25 05:47:52;;;;;;;;;;;;;;;-144.99;100.00;52574.47;5044928;28;20327;-74
2022/11/25 05:50:19;;;;;;;;;;;;;;;-144.99;100.00;52554.09;5046201;28;20013;-74
2022/11/25 05:52:47;;;;;;;;;;;;;;;-144.99;100.00;52590.78;5035493;28;19956;-75
2022/11/25 05:55:14;;;;;;;;;;;;;;;-144.99;100.00;52586.69;5050120;28;20425;-75
2022/11/25 05:57:40;;;;;;;;;;;;;;;-144.99;100.00;52603.00;5039801;28;19963;-75
2022/11/25 06:00:09;;;;;;;;;;;;;;;-144.99;100.00;52607.09;5051561;28;19939;-75
2022/11/25 06:02:37;;;;;;;;;;;;;;;-144.99;100.00;52598.94;5051594;28;19960;-76
2022/11/25 06:05:04;;;;;;;;;;;;;;;-144.99;100.00;52594.84;5045846;28;19941;-77
2022/11/25 06:07:30;;;;;;;;;;;;;;;-144.99;100.00;52582.63;5047050;28;19959;-76
2022/11/25 06:09:58;;;;;;;;;;;;;;;-144.99;100.00;52586.69;4347052;28;10000677;-73
2022/11/25 06:12:25;;;;;;;;;;;;;;;-144.99;100.00;52582.63;5045472;28;19950;-73
2022/11/25 06:14:51;;;;;;;;;;;;;;;-144.99;100.00;52570.38;5041462;28;19936;-72
2022/11/25 06:17:18;;;;;;;;;;;;;;;-144.99;100.00;52586.69;5042747;28;19950;-73
2022/11/25 06:19:44;;;;;;;;;;;;;;;-144.99;100.00;52590.78;5047441;28;20509;-73
2022/11/25 06:22:11;;;;;;;;;;;;;;;-144.99;100.00;52617.28;5044497;28;19961;-73
2022/11/25 06:24:37;;;;;;;;;;;;;;;-144.99;100.00;52600.97;5038957;28;19948;-72
2022/11/25 06:27:05;;;;;;;;;;;;;;;-144.99;100.00;52570.38;5044975;28;20009;-72
2022/11/25 06:29:31;;;;;;;;;;;;;;;-144.99;100.00;52576.50;5041985;28;20399;-73
2022/11/25 06:31:58;;;;;;;;;;;;;;;-144.99;100.00;52574.47;5028762;28;19995;-73
2022/11/25 06:34:25;;;;;;;;;;;;;;;-144.99;100.00;52590.78;5028622;28;20469;-74
2022/11/25 06:36:51;;;;;;;;;;;;;;;-144.99;100.00;52586.69;5040436;28;19945;-73
2022/11/25 06:39:18;;;;;;;;;;;;;;;-144.99;100.00;52554.09;5035082;28;20004;-73
2022/11/25 06:41:46;;;;;;;;;;;;;;;-144.99;100.00;52615.25;5044526;28;19986;-72
2022/11/25 06:44:13;;;;;;;;;;;;;;;-144.99;100.00;52607.09;5046371;28;20527;-73
2022/11/25 06:46:40;;;;;;;;;;;;;;;-144.99;100.00;52615.25;5042337;28;19939;-74
2022/11/25 06:49:07;;;;;;;;;;;;;;;-144.99;100.00;52603.00;5040086;28;20410;-73
2022/11/25 06:51:33;;;;;;;;;;;;;;;-144.99;100.00;52590.78;5039812;28;19972;-72
2022/11/25 06:54:02;;;;;;;;;;;;;;;-144.99;100.00;52590.78;5039642;28;20424;-74
2022/11/25 06:56:28;;;;;;;;;;;;;;;-144.99;100.00;52617.28;5036480;28;20043;-75
2022/11/25 06:58:55;;;;;;;;;;;;;;;-144.99;100.00;52598.94;5048143;28;20360;-74
2022/11/25 07:01:24;;;;;;;;;;;;;;;-144.99;100.00;52566.31;5042950;28;19969;-75
2022/11/25 07:03:52;;;;;;;;;;;;;;;-144.99;100.00;52558.16;5037865;28;19939;-74
2022/11/25 07:06:19;;;;;;;;;;;;;;;-144.99;100.00;52566.31;5039838;28;19954;-74
2022/11/25 07:08:46;;;;;;;;;;;;;;;-144.99;100.00;52586.69;5042016;28;20412;-74
2022/11/25 07:11:16;;;;;;;;;;;;;;;-144.99;100.00;52562.25;5049526;28;20056;-73
2022/11/25 07:13:42;;;;;;;;;;;;;;;-144.99;100.00;52613.19;5034335;28;20051;-73
2022/11/25 07:16:10;;;;;;;;;;;;;;;-144.99;100.00;52590.78;5046092;28;20004;-74
2022/11/25 07:18:39;;;;;;;;;;;;;;;-144.99;100.00;52598.94;5051027;28;19944;-74
2022/11/25 07:21:06;;;;;;;;;;;;;;;-144.99;100.00;52615.25;5054594;28;20008;-75
2022/11/25 07:23:33;;;;;;;;;;;;;;;-144.99;100.00;52605.03;5042960;28;19961;-74
2022/11/25 07:26:03;;;;;;;;;;;;;;;-144.99;100.00;52574.47;5059267;28;19944;-73
2022/11/25 07:28:30;;;;;;;;;;;;;;;-144.99;100.00;52594.84;5048527;28;20042;-74
2022/11/25 07:31:03;;;;;;;;;;;;;;;-144.99;100.00;52578.53;5060857;28;19983;-72
2022/11/25 07:33:30;;;;;;;;;;;;;;;-144.99;100.00;52623.38;5045926;28;19961;-73
2022/11/25 07:36:00;;;;;;;;;;;;;;;-144.99;100.00;52574.47;5043129;28;19988;-72
2022/11/25 07:38:27;;;;;;;;;;;;;;;-144.99;100.00;52594.84;5052301;28;19932;-73
2022/11/25 07:40:54;;;;;;;;;;;;;;;-144.99;100.00;52582.63;5059398;28;20005;-73
2022/11/25 07:43:20;;;;;;;;;;;;;;;-144.99;100.00;52570.38;5043751;28;19976;-74
2022/11/25 07:45:47;;;;;;;;;;;;;;;-144.99;100.00;52590.78;4694668;28;10000336;-73
2022/11/25 07:48:13;;;;;;;;;;;;;;;-144.99;100.00;52607.09;5040965;28;19974;-72
2022/11/25 07:50:40;;;;;;;;;;;;;;;-144.99;100.00;52562.25;5042790;28;20390;-73
2022/11/25 07:53:08;;;;;;;;;;;;;;;-144.99;100.00;52562.25;5049836;28;20042;-73
2022/11/25 07:55:34;;;;;;;;;;;;;;;-144.99;100.00;52598.94;5047481;28;19943;-72
2022/11/25 07:58:01;;;;;;;;;;;;;;;-144.99;100.00;52547.97;5048674;28;19939;-73
2022/11/25 08:00:27;;;;;;;;;;;;;;;-144.99;100.00;52603.00;5045147;28;20350;-74
2022/11/25 08:02:54;;;;;;;;;;;;;;;-144.99;100.00;52578.53;5053404;28;19972;-74
2022/11/25 08:05:21;;;;;;;;;;;;;;;-144.99;100.00;52576.50;5040030;28;21128;-75
2022/11/25 08:07:47;;;;;;;;;;;;;;;-144.99;100.00;52582.63;5047743;28;19953;-73
2022/11/25 08:10:17;;;;;;;;;;;;;;;-144.99;100.00;52594.84;5040901;28;20476;-73
2022/11/25 08:12:44;;;;;;;;;;;;;;;-144.99;100.00;52554.09;5031461;28;19937;-73
2022/11/25 08:15:11;;;;;;;;;;;;;;;-144.99;100.00;52615.25;5036672;28;19999;-76
2022/11/25 08:17:37;;;;;;;;;;;;;;;-144.99;100.00;52603.00;5045207;28;19941;-76
2022/11/25 08:20:04;;;;;;;;;;;;;;;-144.99;100.00;52562.25;5041762;28;19954;-75
2022/11/25 08:22:31;;;;;;;;;;;;;;;-144.99;100.00;52578.53;5028956;28;19983;-72
2022/11/25 08:24:58;;;;;;;;;;;;;;;-144.99;100.00;52566.31;5034769;28;20454;-72
2022/11/25 08:27:26;;;;;;;;;;;;;;;-144.99;100.00;52603.00;5039079;28;19937;-74
2022/11/25 08:29:52;;;;;;;;;;;;;;;-144.99;100.00;52558.16;5032124;28;19929;-72
2022/11/25 08:32:19;;;;;;;;;;;;;;;-144.99;100.00;52582.63;5028791;28;19936;-73
2022/11/25 08:34:45;;;;;;;;;;;;;;;-144.99;100.00;52574.47;5035861;28;20404;-72
2022/11/25 08:37:12;;;;;;;;;;;;;;;-144.99;100.00;52562.25;5038348;28;19984;-73
2022/11/25 08:39:38;;;;;;;;;;;;;;;-144.99;100.00;52554.09;5042010;28;19942;-74
2022/11/25 08:42:05;;;;;;;;;;;;;;;-144.99;100.00;52543.91;5040644;28;20021;-75
2022/11/25 08:44:33;;;;;;;;;;;;;;;-144.99;100.00;52619.31;5033528;28;19941;-73
2022/11/25 08:47:00;;;;;;;;;;;;;;;-144.99;100.00;52570.38;5041864;28;19941;-72
2022/11/25 08:49:29;;;;;;;;;;;;;;;-144.99;100.00;52545.94;5040749;28;19939;-72
2022/11/25 08:51:55;;;;;;;;;;;;;;;-144.99;100.00;52570.38;5042647;28;20011;-72
2022/11/25 08:54:22;;;;;;;;;;;;;;;-144.99;100.00;52586.69;5031882;28;19929;-72
2022/11/25 08:56:49;;;;;;;;;;;;;;;-144.99;100.00;52586.69;5040416;28;19941;-74
2022/11/25 08:59:15;;;;;;;;;;;;;;;-144.99;100.00;52570.38;5047102;28;20407;-73
2022/11/25 09:01:43;;;;;;;;;;;;;;;-144.99;100.00;52598.94;5047693;28;20102;-69
2022/11/25 09:04:10;;;;;;;;;;;;;;;-144.99;100.00;52570.38;5043115;28;20018;-73
2022/11/25 09:06:38;;;;;;;;;;;;;;;-144.99;100.00;52600.97;5040457;28;19962;-72
2022/11/25 09:09:05;;;;;;;;;;;;;;;-144.99;100.00;52537.78;5042054;28;19955;-72
2022/11/25 09:11:32;;;;;;;;;;;;;;;-144.99;100.00;52590.78;5040242;28;20320;-71
2022/11/25 09:13:58;;;;;;;;;;;;;;;-144.99;100.00;52554.09;5047852;28;20045;-72
2022/11/25 09:16:25;;;;;;;;;;;;;;;-144.99;100.00;52603.00;5048604;28;19955;-72
2022/11/25 09:18:53;;;;;;;;;;;;;;;-144.99;100.00;52560.19;5048786;28;20001;-71
2022/11/25 09:21:19;;;;;;;;;;;;;;;-144.99;100.00;52607.09;5041987;28;19971;-71
2022/11/25 09:23:46;;;;;;;;;;;;;;;-144.99;100.00;52570.38;5042380;28;19955;-72
2022/11/25 09:26:19;;;;;;;;;;;;;;;-144.99;100.00;52578.53;5043610;28;20056;-71
2022/11/25 09:28:45;;;;;;;;;;;;;;;-144.99;100.00;52556.13;5045231;28;19983;-70
2022/11/25 09:31:12;;;;;;;;;;;;;;;-144.99;100.00;52590.78;5039764;28;19932;-71
2022/11/25 09:33:39;;;;;;;;;;;;;;;-144.99;100.00;52596.88;5049449;28;19962;-71
2022/11/25 09:36:07;;;;;;;;;;;;;;;-144.99;100.00;52558.16;5030985;28;20319;-71
2022/11/25 09:38:33;;;;;;;;;;;;;;;-144.99;100.00;52590.78;5045988;28;19992;-72
2022/11/25 09:41:01;;;;;;;;;;;;;;;-144.99;100.00;52545.94;5045586;28;19987;-72
2022/11/25 09:46:44;;;;;;;;;;;;;;;-144.99;100.00;52611.16;5047034;28;20010;-71
2022/11/25 09:49:20;;;;;;;;;;;;;;;-144.99;100.00;52598.94;5040851;28;19933;-71
2022/11/25 09:51:52;;;;;;;;;;;;;;;-144.99;100.00;52574.47;5043158;28;20658;-73
2022/11/25 09:54:21;;;;;;;;;;;;;;;-144.99;100.00;52570.38;5042564;28;20013;-72
2022/11/25 09:56:51;;;;;;;;;;;;;;;-144.99;100.00;52576.50;5037053;28;19941;-72
2022/11/25 09:59:19;;;;;;;;;;;;;;;-144.99;100.00;52590.78;5032789;28;20562;-72
2022/11/25 10:01:49;;;;;;;;;;;;;;;-144.99;100.00;52572.44;5038769;28;19959;-71
2022/11/25 10:04:18;;;;;;;;;;;;;;;-144.99;100.00;52580.59;5046235;28;19935;-70
2022/11/25 10:06:48;;;;;;;;;;;;;;;-144.99;100.00;52547.97;5040768;28;19945;-70
2022/11/25 10:09:20;;;;;;;;;;;;;;;-144.99;100.00;52537.78;5043158;28;19945;-71
2022/11/25 10:11:49;;;;;;;;;;;;;;;-144.99;100.00;52580.59;5040880;28;19952;-72
2022/11/25 10:14:21;;;;;;;;;;;;;;;-144.99;100.00;52554.09;5040075;28;19961;-71
2022/11/25 10:16:50;;;;;;;;;;;;;;;-144.99;100.00;52558.16;5049073;28;19929;-72
2022/11/25 10:19:23;;;;;;;;;;;;;;;-144.99;100.00;52574.47;5040864;28;19936;-71
2022/11/25 10:21:49;;;;;;;;;;;;;;;-144.99;100.00;52611.16;5042880;28;19937;-72
2022/11/25 10:24:20;;;;;;;;;;;;;;;-144.99;100.00;52578.53;5041895;28;19955;-72
2022/11/25 10:26:49;;;;;;;;;;;;;;;-144.99;100.00;52552.03;5039088;28;19929;-71
2022/11/25 10:29:26;;;;;;;;;;;;;;;-144.99;100.00;52582.63;5043858;28;19949;-71
2022/11/25 10:31:56;;;;;;;;;;;;;;;-144.99;100.00;52545.94;5045340;28;20047;-77
2022/11/25 10:34:27;;;;;;;;;;;;;;;-144.99;100.00;52611.16;5048106;28;20332;-73
2022/11/25 10:36:54;;;;;;;;;;;;;;;-144.99;100.00;52554.09;5048356;28;20338;-76
2022/11/25 10:39:26;;;;;;;;;;;;;;;-144.99;100.00;52558.16;5070091;28;21196;-77
2022/11/25 10:41:56;;;;;;;;;;;;;;;-144.99;100.00;52590.78;5058795;28;19984;-74
2022/11/25 10:44:25;;;;;;;;;;;;;;;-144.99;100.00;52550.00;5075114;28;19963;-74
2022/11/25 10:46:59;;;;;;;;;;;;;;;-144.99;100.00;52545.94;5068952;28;19924;-74
2022/11/25 10:49:29;;;;;;;;;;;;;;;-144.99;100.00;52543.91;5065528;28;19946;-73
2022/11/25 10:51:56;;;;;;;;;;;;;;;-144.99;100.00;52574.47;5063923;28;19925;-74
2022/11/25 10:54:25;;;;;;;;;;;;;;;-144.99;100.00;52562.25;5073196;28;19965;-74
2022/11/25 10:56:52;;;;;;;;;;;;;;;-144.99;100.00;52603.00;5070782;28;19999;-72
2022/11/25 10:59:22;;;;;;;;;;;;;;;-144.99;100.00;52537.78;5062093;28;20438;-73
2022/11/25 11:01:49;;;;;;;;;;;;;;;-144.99;100.00;52570.38;5050192;28;19979;-73
2022/11/25 11:04:17;;;;;;;;;;;;;;;-144.99;100.00;52541.84;5062363;28;19972;-72
2022/11/25 11:06:46;;;;;;;;;;;;;;;-144.99;100.00;52566.31;5050682;28;19987;-74
2022/11/25 11:09:27;;;;;;;;;;;;;;;-144.99;100.00;52550.00;5068059;28;19938;-74
2022/11/25 11:11:55;;;;;;;;;;;;;;;-144.99;100.00;52541.84;5070948;28;19984;-74
2022/11/25 11:14:21;;;;;;;;;;;;;;;-144.99;100.00;52562.25;5065788;28;19947;-73
2022/11/25 11:16:52;;;;;;;;;;;;;;;-144.99;100.00;52533.69;5066493;28;19927;-74
2022/11/25 11:19:22;;;;;;;;;;;;;;;-144.99;100.00;52545.94;5069677;28;20016;-74
2022/11/25 11:21:49;;;;;;;;;;;;;;;-144.99;100.00;52572.44;5071537;28;19972;-73
2022/11/25 11:24:24;;;;;;;;;;;;;;;-144.99;100.00;52543.91;5074844;28;19994;-72
2022/11/25 11:27:02;;;;;;;;;;;;;;;-144.99;100.00;52541.84;5061910;28;19980;-73
2022/11/25 11:29:28;;;;;;;;;;;;;;;-144.99;100.00;52523.50;5057330;28;19965;-71
2022/11/25 11:31:58;;;;;;;;;;;;;;;-144.99;100.00;52550.00;5057173;28;19945;-73
2022/11/25 11:34:40;;;;;;;;;;;;;;;-144.99;100.00;52574.47;5063565;28;19974;-73
2022/11/25 11:37:18;;;;;;;;;;;;;;;-144.99;100.00;52554.09;5061455;28;19925;-73
2022/11/25 11:39:58;;;;;;;;;;;;;;;-144.99;100.00;52572.44;5051396;28;19966;-72
2022/11/25 11:42:32;;;;;;;;;;;;;;;-144.99;100.00;52525.56;5050902;28;19991;-71
2022/11/25 11:45:05;;;;;;;;;;;;;;;-144.99;100.00;52547.97;5049929;28;20417;-72
2022/11/25 11:47:37;;;;;;;;;;;;;;;-144.99;100.00;52545.94;5055070;28;19935;-73
2022/11/25 11:50:15;;;;;;;;;;;;;;;-144.99;100.00;52574.47;5047021;28;19948;-74
2022/11/25 11:52:49;;;;;;;;;;;;;;;-144.99;100.00;52566.31;5043983;28;20329;-72
2022/11/25 11:55:24;;;;;;;;;;;;;;;-144.99;100.00;52521.47;5049046;28;20362;-72
2022/11/25 11:57:57;;;;;;;;;;;;;;;-144.99;100.00;52533.69;5046282;28;19947;-71
2022/11/25 12:00:24;;;;;;;;;;;;;;;-144.99;100.00;52529.63;5049454;28;19925;-72
2022/11/25 12:02:55;;;;;;;;;;;;;;;-144.99;100.00;52507.19;5050963;28;19971;-71
2022/11/25 12:05:25;;;;;;;;;;;;;;;-144.99;100.00;52554.09;5041451;28;20025;-71
2022/11/25 12:07:59;;;;;;;;;;;;;;;-144.99;100.00;52543.91;5041503;28;19939;-70
2022/11/25 12:10:28;;;;;;;;;;;;;;;-144.99;100.00;52541.84;5047085;28;19942;-72
2022/11/25 12:13:00;;;;;;;;;;;;;;;-144.99;100.00;52509.25;5051559;28;19958;-72
2022/11/25 12:15:33;;;;;;;;;;;;;;;-144.99;100.00;52517.41;5039721;28;20130;-73
2022/11/25 12:18:02;;;;;;;;;;;;;;;-144.99;100.00;52525.56;5033897;28;19940;-73
2022/11/25 12:20:36;;;;;;;;;;;;;;;-144.99;100.00;52527.59;5045882;28;19957;-72
2022/11/25 12:23:06;;;;;;;;;;;;;;;-144.99;100.00;52541.84;5037420;28;19967;-74
2022/11/25 12:25:35;;;;;;;;;;;;;;;-144.99;100.00;52509.25;5030051;28;20374;-71
2022/11/25 12:28:07;;;;;;;;;;;;;;;-144.99;100.00;52547.97;5045907;28;21402;-73
2022/11/25 12:30:36;;;;;;;;;;;;;;;-144.99;100.00;52545.94;5036534;28;19928;-74
2022/11/25 12:33:06;;;;;;;;;;;;;;;-144.99;100.00;52547.97;5034772;28;19929;-74